sensor_id;sensor_type;location;lat;lon;timestamp;pressure;altitude;pressure_sealevel;temperature;humidity
21879;BME280;27908;42.708;23.278;2023-04-30T00:01:27;63452.69;;;9.16;100.00
21879;BME280;27908;42.708;23.278;2023-04-30T00:03:52;63469.94;;;9.11;100.00
21879;BME280;27908;42.708;23.278;2023-04-30T00:06:18;63429.72;;;9.06;100.00
21879;BME280;27908;42.708;23.278;2023-04-30T00:08:43;63437.75;;;8.97;100.00
21879;BME280;27908;42.708;23.278;2023-04-30T00:11:08;63394.50;;;8.92;100.00
21879;BME280;27908;42.708;23.278;2023-04-30T00:13:34;63394.44;;;8.85;100.00
21879;BME280;27908;42.708;23.278;2023-04-30T00:15:59;63392.28;;;8.73;100.00
21879;BME280;27908;42.708;23.278;2023-04-30T00:18:24;63374.41;;;8.65;100.00
21879;BME280;27908;42.708;23.278;2023-04-30T00:20:50;63313.47;;;8.12;100.00
21879;BME280;27908;42.708;23.278;2023-04-30T00:23:17;63348.84;;;8.46;100.00
21879;BME280;27908;42.708;23.278;2023-04-30T00:25:42;63334.47;;;8.29;100.00
21879;BME280;27908;42.708;23.278;2023-04-30T00:28:08;63302.88;;;8.21;100.00
21879;BME280;27908;42.708;23.278;2023-04-30T00:30:33;63327.81;;;8.25;100.00
21879;BME280;27908;42.708;23.278;2023-04-30T00:32:59;63326.84;;;8.29;100.00
21879;BME280;27908;42.708;23.278;2023-04-30T00:35:24;63323.69;;;8.19;100.00
21879;BME280;27908;42.708;23.278;2023-04-30T00:37:49;63316.59;;;8.22;100.00
21879;BME280;27908;42.708;23.278;2023-04-30T00:40:15;63340.88;;;8.11;100.00
21879;BME280;27908;42.708;23.278;2023-04-30T00:42:40;63267.59;;;7.94;100.00
21879;BME280;27908;42.708;23.278;2023-04-30T00:45:06;63305.69;;;7.99;100.00
21879;BME280;27908;42.708;23.278;2023-04-30T00:47:32;63304.69;;;8.01;100.00
21879;BME280;27908;42.708;23.278;2023-04-30T00:49:58;63311.25;;;7.97;100.00
21879;BME280;27908;42.708;23.278;2023-04-30T00:52:23;63261.97;;;7.89;100.00
21879;BME280;27908;42.708;23.278;2023-04-30T00:54:49;63300.84;;;7.73;100.00
21879;BME280;27908;42.708;23.278;2023-04-30T00:57:19;63256.03;;;7.56;100.00
21879;BME280;27908;42.708;23.278;2023-04-30T00:59:44;63244.03;;;7.72;100.00
21879;BME280;27908;42.708;23.278;2023-04-30T01:02:11;63247.03;;;7.70;100.00
21879;BME280;27908;42.708;23.278;2023-04-30T01:04:37;63199.19;;;7.50;100.00
21879;BME280;27908;42.708;23.278;2023-04-30T01:07:03;63265.53;;;7.43;100.00
21879;BME280;27908;42.708;23.278;2023-04-30T01:09:29;63234.16;;;7.50;100.00
21879;BME280;27908;42.708;23.278;2023-04-30T01:17:24;63229.56;;;7.45;100.00
21879;BME280;27908;42.708;23.278;2023-04-30T01:19:53;63222.94;;;7.44;100.00
21879;BME280;27908;42.708;23.278;2023-04-30T01:25:20;63170.94;;;7.13;100.00
21879;BME280;27908;42.708;23.278;2023-04-30T01:28:04;63235.91;;;7.22;100.00
21879;BME280;27908;42.708;23.278;2023-04-30T01:30:34;63223.75;;;7.25;100.00
21879;BME280;27908;42.708;23.278;2023-04-30T01:33:00;63188.63;;;7.08;100.00
21879;BME280;27908;42.708;23.278;2023-04-30T01:44:52;63174.00;;;7.16;100.00
21879;BME280;27908;42.708;23.278;2023-04-30T01:50:11;63228.34;;;7.30;100.00
21879;BME280;27908;42.708;23.278;2023-04-30T01:52:44;63218.81;;;7.38;100.00
21879;BME280;27908;42.708;23.278;2023-04-30T01:57:55;63200.59;;;7.40;100.00
21879;BME280;27908;42.708;23.278;2023-04-30T02:00:23;63244.84;;;7.53;100.00
21879;BME280;27908;42.708;23.278;2023-04-30T02:02:48;63243.38;;;7.56;100.00
21879;BME280;27908;42.708;23.278;2023-04-30T02:05:14;63272.31;;;7.62;100.00
21879;BME280;27908;42.708;23.278;2023-04-30T02:07:42;63216.97;;;7.55;100.00
21879;BME280;27908;42.708;23.278;2023-04-30T02:10:09;63226.53;;;7.47;100.00
21879;BME280;27908;42.708;23.278;2023-04-30T02:12:36;63233.28;;;7.61;100.00
21879;BME280;27908;42.708;23.278;2023-04-30T02:15:03;63256.84;;;7.38;100.00
21879;BME280;27908;42.708;23.278;2023-04-30T02:17:29;63253.94;;;7.49;100.00
21879;BME280;27908;42.708;23.278;2023-04-30T02:19:56;63235.22;;;7.53;100.00
21879;BME280;27908;42.708;23.278;2023-04-30T02:22:21;63265.03;;;7.45;100.00
21879;BME280;27908;42.708;23.278;2023-04-30T02:24:46;63194.50;;;7.36;100.00
21879;BME280;27908;42.708;23.278;2023-04-30T02:27:12;63217.97;;;7.54;100.00
21879;BME280;27908;42.708;23.278;2023-04-30T02:29:37;63245.91;;;7.59;100.00
21879;BME280;27908;42.708;23.278;2023-04-30T02:32:03;63271.81;;;7.64;100.00
21879;BME280;27908;42.708;23.278;2023-04-30T02:34:28;63258.22;;;7.71;100.00
21879;BME280;27908;42.708;23.278;2023-04-30T02:36:54;63228.09;;;7.51;100.00
21879;BME280;27908;42.708;23.278;2023-04-30T02:39:19;63265.22;;;7.63;100.00
21879;BME280;27908;42.708;23.278;2023-04-30T02:41:45;63258.13;;;7.63;100.00
21879;BME280;27908;42.708;23.278;2023-04-30T02:44:11;63277.53;;;7.75;100.00
21879;BME280;27908;42.708;23.278;2023-04-30T02:46:36;63260.22;;;7.70;100.00
21879;BME280;27908;42.708;23.278;2023-04-30T02:49:02;63248.66;;;7.78;100.00
21879;BME280;27908;42.708;23.278;2023-04-30T02:51:27;63266.72;;;7.59;100.00
21879;BME280;27908;42.708;23.278;2023-04-30T02:53:53;63271.94;;;7.74;100.00
21879;BME280;27908;42.708;23.278;2023-04-30T02:56:18;63294.91;;;7.86;100.00
21879;BME280;27908;42.708;23.278;2023-04-30T02:58:44;63270.41;;;7.73;100.00
21879;BME280;27908;42.708;23.278;2023-04-30T03:01:09;63272.63;;;7.89;100.00
21879;BME280;27908;42.708;23.278;2023-04-30T03:03:35;63260.91;;;7.85;100.00
21879;BME280;27908;42.708;23.278;2023-04-30T03:06:00;63291.91;;;7.91;100.00
21879;BME280;27908;42.708;23.278;2023-04-30T03:08:26;63286.31;;;7.90;100.00
21879;BME280;27908;42.708;23.278;2023-04-30T03:10:52;63325.94;;;7.97;100.00
21879;BME280;27908;42.708;23.278;2023-04-30T03:13:17;63289.47;;;8.01;100.00
21879;BME280;27908;42.708;23.278;2023-04-30T03:15:43;63346.88;;;8.07;100.00
21879;BME280;27908;42.708;23.278;2023-04-30T03:18:09;63326.50;;;8.00;100.00
21879;BME280;27908;42.708;23.278;2023-04-30T03:20:35;63278.69;;;7.88;100.00
21879;BME280;27908;42.708;23.278;2023-04-30T03:23:00;63250.16;;;7.75;100.00
21879;BME280;27908;42.708;23.278;2023-04-30T03:25:26;63283.13;;;7.78;100.00
21879;BME280;27908;42.708;23.278;2023-04-30T03:27:51;63298.97;;;7.88;100.00
21879;BME280;27908;42.708;23.278;2023-04-30T03:30:16;63295.47;;;7.92;100.00
21879;BME280;27908;42.708;23.278;2023-04-30T03:32:42;63268.16;;;8.00;100.00
21879;BME280;27908;42.708;23.278;2023-04-30T03:35:07;63275.16;;;7.92;100.00
21879;BME280;27908;42.708;23.278;2023-04-30T03:37:33;63281.69;;;7.83;100.00
21879;BME280;27908;42.708;23.278;2023-04-30T03:39:58;63280.25;;;7.94;100.00
21879;BME280;27908;42.708;23.278;2023-04-30T03:42:24;63316.47;;;8.10;100.00
21879;BME280;27908;42.708;23.278;2023-04-30T03:44:49;63338.47;;;8.23;100.00
21879;BME280;27908;42.708;23.278;2023-04-30T03:47:15;63358.28;;;8.28;100.00
21879;BME280;27908;42.708;23.278;2023-04-30T03:49:40;63363.53;;;8.43;100.00
21879;BME280;27908;42.708;23.278;2023-04-30T03:52:06;63379.94;;;8.58;100.00
21879;BME280;27908;42.708;23.278;2023-04-30T03:54:31;63373.28;;;8.52;100.00
21879;BME280;27908;42.708;23.278;2023-04-30T03:56:58;63435.97;;;8.73;100.00
21879;BME280;27908;42.708;23.278;2023-04-30T03:59:24;63397.44;;;8.80;100.00
21879;BME280;27908;42.708;23.278;2023-04-30T04:01:50;63400.91;;;8.74;100.00
21879;BME280;27908;42.708;23.278;2023-04-30T04:04:16;63419.16;;;8.69;100.00
21879;BME280;27908;42.708;23.278;2023-04-30T04:06:42;63354.59;;;8.63;100.00
21879;BME280;27908;42.708;23.278;2023-04-30T04:09:07;63409.94;;;8.60;100.00
21879;BME280;27908;42.708;23.278;2023-04-30T04:11:33;63421.09;;;8.61;100.00
21879;BME280;27908;42.708;23.278;2023-04-30T04:13:59;63383.69;;;8.77;100.00
21879;BME280;27908;42.708;23.278;2023-04-30T04:16:24;63452.44;;;8.91;100.00
21879;BME280;27908;42.708;23.278;2023-04-30T04:18:51;63402.13;;;8.92;100.00
21879;BME280;27908;42.708;23.278;2023-04-30T04:21:17;63419.91;;;8.92;100.00
21879;BME280;27908;42.708;23.278;2023-04-30T04:23:43;63433.66;;;8.93;100.00
21879;BME280;27908;42.708;23.278;2023-04-30T04:26:08;63418.88;;;8.88;100.00
21879;BME280;27908;42.708;23.278;2023-04-30T04:28:35;63396.03;;;8.91;100.00
21879;BME280;27908;42.708;23.278;2023-04-30T04:31:01;63415.28;;;8.85;100.00
21879;BME280;27908;42.708;23.278;2023-04-30T04:33:27;63392.41;;;8.85;100.00
21879;BME280;27908;42.708;23.278;2023-04-30T04:35:53;63476.81;;;8.90;100.00
21879;BME280;27908;42.708;23.278;2023-04-30T04:38:18;63539.00;;;9.06;100.00
21879;BME280;27908;42.708;23.278;2023-04-30T04:40:53;63456.97;;;9.35;100.00
21879;BME280;27908;42.708;23.278;2023-04-30T04:43:19;63441.56;;;9.22;100.00
21879;BME280;27908;42.708;23.278;2023-04-30T04:45:44;63450.78;;;9.29;100.00
21879;BME280;27908;42.708;23.278;2023-04-30T04:48:10;63501.22;;;9.38;100.00
21879;BME280;27908;42.708;23.278;2023-04-30T04:50:35;63519.59;;;9.44;100.00
21879;BME280;27908;42.708;23.278;2023-04-30T04:53:00;63564.59;;;9.65;100.00
21879;BME280;27908;42.708;23.278;2023-04-30T04:55:26;63515.38;;;9.79;100.00
21879;BME280;27908;42.708;23.278;2023-04-30T04:57:51;63572.03;;;9.92;100.00
21879;BME280;27908;42.708;23.278;2023-04-30T05:00:17;63576.28;;;10.10;100.00
21879;BME280;27908;42.708;23.278;2023-04-30T05:02:43;63591.59;;;10.13;100.00
21879;BME280;27908;42.708;23.278;2023-04-30T05:05:08;63650.41;;;10.37;100.00
21879;BME280;27908;42.708;23.278;2023-04-30T05:07:35;63617.88;;;10.43;100.00
21879;BME280;27908;42.708;23.278;2023-04-30T05:10:00;63637.41;;;10.62;100.00
21879;BME280;27908;42.708;23.278;2023-04-30T05:12:26;63627.19;;;10.59;100.00
21879;BME280;27908;42.708;23.278;2023-04-30T05:14:51;63654.84;;;10.71;100.00
21879;BME280;27908;42.708;23.278;2023-04-30T05:17:17;63667.19;;;10.83;100.00
21879;BME280;27908;42.708;23.278;2023-04-30T05:19:42;63635.06;;;10.81;100.00
21879;BME280;27908;42.708;23.278;2023-04-30T05:22:07;63704.97;;;10.90;100.00
21879;BME280;27908;42.708;23.278;2023-04-30T05:24:33;63711.81;;;11.11;100.00
21879;BME280;27908;42.708;23.278;2023-04-30T05:26:59;63709.84;;;11.19;100.00
21879;BME280;27908;42.708;23.278;2023-04-30T05:29:24;63764.06;;;11.32;100.00
21879;BME280;27908;42.708;23.278;2023-04-30T05:31:49;63754.31;;;11.27;100.00
21879;BME280;27908;42.708;23.278;2023-04-30T05:34:15;63764.22;;;11.44;100.00
21879;BME280;27908;42.708;23.278;2023-04-30T05:36:41;63708.22;;;11.07;100.00
21879;BME280;27908;42.708;23.278;2023-04-30T05:39:06;63757.81;;;11.21;100.00
21879;BME280;27908;42.708;23.278;2023-04-30T05:41:31;63762.50;;;11.28;99.98
21879;BME280;27908;42.708;23.278;2023-04-30T05:43:57;63772.72;;;11.30;99.92
21879;BME280;27908;42.708;23.278;2023-04-30T05:46:22;63777.38;;;11.37;100.00
21879;BME280;27908;42.708;23.278;2023-04-30T05:48:48;63755.88;;;11.31;98.91
21879;BME280;27908;42.708;23.278;2023-04-30T05:51:13;63690.91;;;11.10;99.06
21879;BME280;27908;42.708;23.278;2023-04-30T05:53:39;63754.88;;;11.30;100.00
21879;BME280;27908;42.708;23.278;2023-04-30T05:56:04;63795.25;;;11.37;100.00
21879;BME280;27908;42.708;23.278;2023-04-30T05:58:30;63824.00;;;11.52;99.64
21879;BME280;27908;42.708;23.278;2023-04-30T06:00:55;63793.03;;;11.69;98.26
21879;BME280;27908;42.708;23.278;2023-04-30T06:03:21;63811.03;;;11.81;97.44
21879;BME280;27908;42.708;23.278;2023-04-30T06:05:46;63841.25;;;11.91;98.29
21879;BME280;27908;42.708;23.278;2023-04-30T06:08:12;63855.06;;;11.94;98.83
21879;BME280;27908;42.708;23.278;2023-04-30T06:10:38;64006.81;;;11.98;96.93
21879;BME280;27908;42.708;23.278;2023-04-30T06:13:04;63843.84;;;11.93;97.01
21879;BME280;27908;42.708;23.278;2023-04-30T06:15:30;63937.00;;;12.11;94.58
21879;BME280;27908;42.708;23.278;2023-04-30T06:17:55;63887.63;;;12.30;93.03
21879;BME280;27908;42.708;23.278;2023-04-30T06:20:21;63890.25;;;12.38;92.83
21879;BME280;27908;42.708;23.278;2023-04-30T06:22:46;63923.06;;;12.47;93.06
21879;BME280;27908;42.708;23.278;2023-04-30T06:25:12;63917.91;;;12.42;90.98
21879;BME280;27908;42.708;23.278;2023-04-30T06:27:37;63942.84;;;12.34;91.73
21879;BME280;27908;42.708;23.278;2023-04-30T06:30:03;63875.81;;;12.24;91.09
21879;BME280;27908;42.708;23.278;2023-04-30T06:32:29;63880.56;;;11.89;93.34
21879;BME280;27908;42.708;23.278;2023-04-30T06:34:54;63822.84;;;11.90;94.75
21879;BME280;27908;42.708;23.278;2023-04-30T06:37:20;63855.53;;;11.90;94.87
21879;BME280;27908;42.708;23.278;2023-04-30T06:39:45;63809.34;;;11.65;95.82
21879;BME280;27908;42.708;23.278;2023-04-30T06:42:11;63894.44;;;11.98;92.69
21879;BME280;27908;42.708;23.278;2023-04-30T06:44:36;63881.38;;;12.17;93.19
21879;BME280;27908;42.708;23.278;2023-04-30T06:47:02;63906.09;;;12.38;92.49
21879;BME280;27908;42.708;23.278;2023-04-30T06:49:27;63926.75;;;12.60;93.02
21879;BME280;27908;42.708;23.278;2023-04-30T06:51:53;63999.75;;;12.93;92.55
21879;BME280;27908;42.708;23.278;2023-04-30T06:54:20;64036.84;;;13.19;90.86
21879;BME280;27908;42.708;23.278;2023-04-30T06:56:47;64073.00;;;13.49;88.52
21879;BME280;27908;42.708;23.278;2023-04-30T06:59:12;64104.56;;;13.84;86.08
21879;BME280;27908;42.708;23.278;2023-04-30T07:01:38;64181.72;;;14.11;84.82
21879;BME280;27908;42.708;23.278;2023-04-30T07:04:03;64201.75;;;14.15;82.55
21879;BME280;27908;42.708;23.278;2023-04-30T07:06:28;64260.59;;;14.49;82.96
21879;BME280;27908;42.708;23.278;2023-04-30T07:08:54;64111.41;;;14.02;82.41
21879;BME280;27908;42.708;23.278;2023-04-30T07:11:20;64177.81;;;14.29;81.65
21879;BME280;27908;42.708;23.278;2023-04-30T07:13:45;64197.34;;;14.33;79.18
21879;BME280;27908;42.708;23.278;2023-04-30T07:16:11;64186.53;;;14.30;79.23
21879;BME280;27908;42.708;23.278;2023-04-30T07:18:36;64169.00;;;14.21;81.12
21879;BME280;27908;42.708;23.278;2023-04-30T07:21:02;64198.78;;;14.24;80.72
21879;BME280;27908;42.708;23.278;2023-04-30T07:23:28;64262.56;;;14.44;78.87
21879;BME280;27908;42.708;23.278;2023-04-30T07:25:53;64199.25;;;14.18;81.21
21879;BME280;27908;42.708;23.278;2023-04-30T07:28:19;64237.53;;;14.52;81.96
21879;BME280;27908;42.708;23.278;2023-04-30T07:30:44;64259.19;;;14.62;79.19
21879;BME280;27908;42.708;23.278;2023-04-30T07:33:11;64291.22;;;14.83;79.72
21879;BME280;27908;42.708;23.278;2023-04-30T07:35:36;64295.63;;;14.63;81.71
21879;BME280;27908;42.708;23.278;2023-04-30T07:38:02;64291.06;;;14.68;78.34
21879;BME280;27908;42.708;23.278;2023-04-30T07:40:29;64301.56;;;14.91;79.29
21879;BME280;27908;42.708;23.278;2023-04-30T07:42:55;64282.94;;;14.78;75.83
21879;BME280;27908;42.708;23.278;2023-04-30T07:45:20;64303.69;;;14.97;76.74
21879;BME280;27908;42.708;23.278;2023-04-30T07:47:45;64348.31;;;14.96;77.75
21879;BME280;27908;42.708;23.278;2023-04-30T07:50:11;64377.44;;;15.29;76.38
21879;BME280;27908;42.708;23.278;2023-04-30T07:52:39;64359.44;;;15.26;77.25
21879;BME280;27908;42.708;23.278;2023-04-30T07:55:05;64410.97;;;15.41;73.34
21879;BME280;27908;42.708;23.278;2023-04-30T07:57:30;64365.66;;;15.32;73.46
21879;BME280;27908;42.708;23.278;2023-04-30T07:59:56;64350.22;;;15.27;74.44
21879;BME280;27908;42.708;23.278;2023-04-30T08:02:22;64356.84;;;15.24;74.60
21879;BME280;27908;42.708;23.278;2023-04-30T08:04:47;64385.22;;;15.33;74.63
21879;BME280;27908;42.708;23.278;2023-04-30T08:07:13;64435.66;;;15.42;73.27
21879;BME280;27908;42.708;23.278;2023-04-30T08:09:40;64422.94;;;15.57;72.62
21879;BME280;27908;42.708;23.278;2023-04-30T08:12:06;64408.09;;;15.63;73.49
21879;BME280;27908;42.708;23.278;2023-04-30T08:14:33;64454.84;;;15.61;73.00
21879;BME280;27908;42.708;23.278;2023-04-30T08:16:58;64454.56;;;15.80;72.78
21879;BME280;27908;42.708;23.278;2023-04-30T08:19:25;64461.13;;;15.71;71.38
21879;BME280;27908;42.708;23.278;2023-04-30T08:21:50;64440.09;;;15.73;72.59
21879;BME280;27908;42.708;23.278;2023-04-30T08:24:16;64516.56;;;16.09;72.16
21879;BME280;27908;42.708;23.278;2023-04-30T08:26:41;64517.56;;;16.08;71.08
21879;BME280;27908;42.708;23.278;2023-04-30T08:29:07;64588.47;;;16.41;70.96
21879;BME280;27908;42.708;23.278;2023-04-30T08:31:33;64615.09;;;16.76;69.76
21879;BME280;27908;42.708;23.278;2023-04-30T08:33:59;64665.75;;;16.95;66.87
21879;BME280;27908;42.708;23.278;2023-04-30T08:36:24;64571.00;;;16.46;64.92
21879;BME280;27908;42.708;23.278;2023-04-30T08:38:50;64645.94;;;16.30;65.85
21879;BME280;27908;42.708;23.278;2023-04-30T08:41:15;64642.13;;;16.53;66.66
21879;BME280;27908;42.708;23.278;2023-04-30T08:43:41;64695.63;;;16.94;66.48
21879;BME280;27908;42.708;23.278;2023-04-30T08:46:10;64660.22;;;17.07;64.80
21879;BME280;27908;42.708;23.278;2023-04-30T08:48:37;64712.25;;;17.07;62.36
21879;BME280;27908;42.708;23.278;2023-04-30T08:51:03;64641.06;;;16.98;63.81
21879;BME280;27908;42.708;23.278;2023-04-30T08:53:39;64645.72;;;16.98;63.45
21879;BME280;27908;42.708;23.278;2023-04-30T08:56:08;64641.41;;;16.81;60.96
21879;BME280;27908;42.708;23.278;2023-04-30T08:58:34;64648.38;;;17.08;61.85
21879;BME280;27908;42.708;23.278;2023-04-30T09:01:00;64754.84;;;17.33;61.31
21879;BME280;27908;42.708;23.278;2023-04-30T09:03:26;64774.66;;;17.54;60.47
21879;BME280;27908;42.708;23.278;2023-04-30T09:05:53;64839.53;;;17.88;61.00
21879;BME280;27908;42.708;23.278;2023-04-30T09:08:42;64792.13;;;17.95;58.85
21879;BME280;27908;42.708;23.278;2023-04-30T09:11:27;64862.00;;;18.12;59.40
21879;BME280;27908;42.708;23.278;2023-04-30T09:13:55;64837.63;;;18.01;58.21
21879;BME280;27908;42.708;23.278;2023-04-30T09:16:22;64825.25;;;18.04;58.58
21879;BME280;27908;42.708;23.278;2023-04-30T09:18:48;64926.25;;;18.31;56.74
21879;BME280;27908;42.708;23.278;2023-04-30T09:21:14;64936.72;;;18.44;57.34
21879;BME280;27908;42.708;23.278;2023-04-30T09:23:59;65044.34;;;18.99;58.02
21879;BME280;27908;42.708;23.278;2023-04-30T09:26:30;64992.22;;;18.64;56.03
21879;BME280;27908;42.708;23.278;2023-04-30T09:28:57;64922.50;;;18.23;58.06
21879;BME280;27908;42.708;23.278;2023-04-30T09:31:23;64995.84;;;18.65;58.01
21879;BME280;27908;42.708;23.278;2023-04-30T09:33:49;65239.91;;;19.10;56.11
21879;BME280;27908;42.708;23.278;2023-04-30T09:36:15;65085.47;;;19.23;54.74
21879;BME280;27908;42.708;23.278;2023-04-30T09:38:41;65063.72;;;19.22;54.66
21879;BME280;27908;42.708;23.278;2023-04-30T09:41:20;64926.34;;;18.41;55.64
21879;BME280;27908;42.708;23.278;2023-04-30T09:43:46;64892.47;;;18.14;55.99
21879;BME280;27908;42.708;23.278;2023-04-30T09:46:11;64735.44;;;17.48;57.92
21879;BME280;27908;42.708;23.278;2023-04-30T09:48:40;64779.50;;;17.71;57.45
21879;BME280;27908;42.708;23.278;2023-04-30T09:51:05;64896.94;;;18.43;58.12
21879;BME280;27908;42.708;23.278;2023-04-30T09:53:32;65032.28;;;18.88;55.15
21879;BME280;27908;42.708;23.278;2023-04-30T09:56:06;65038.78;;;19.11;56.86
21879;BME280;27908;42.708;23.278;2023-04-30T09:58:35;65159.94;;;19.64;54.39
21879;BME280;27908;42.708;23.278;2023-04-30T10:01:04;65287.13;;;20.30;52.59
21879;BME280;27908;42.708;23.278;2023-04-30T10:03:31;65260.47;;;20.12;50.78
21879;BME280;27908;42.708;23.278;2023-04-30T10:05:57;65247.84;;;19.98;51.28
21879;BME280;27908;42.708;23.278;2023-04-30T10:08:35;65150.34;;;19.82;52.00
21879;BME280;27908;42.708;23.278;2023-04-30T10:11:04;65253.13;;;20.05;51.76
21879;BME280;27908;42.708;23.278;2023-04-30T10:13:34;65186.06;;;19.84;51.31
21879;BME280;27908;42.708;23.278;2023-04-30T10:16:07;65056.25;;;19.00;54.27
21879;BME280;27908;42.708;23.278;2023-04-30T10:18:41;64933.06;;;18.40;60.56
21879;BME280;27908;42.708;23.278;2023-04-30T10:21:11;64637.28;;;16.82;67.36
21879;BME280;27908;42.708;23.278;2023-04-30T10:23:38;64488.03;;;15.87;76.80
21879;BME280;27908;42.708;23.278;2023-04-30T10:26:07;64427.34;;;15.34;82.36
21879;BME280;27908;42.708;23.278;2023-04-30T10:28:33;64349.94;;;15.02;82.88
21879;BME280;27908;42.708;23.278;2023-04-30T10:31:02;64321.06;;;14.90;86.15
21879;BME280;27908;42.708;23.278;2023-04-30T10:33:33;64364.88;;;15.07;84.89
21879;BME280;27908;42.708;23.278;2023-04-30T10:36:06;64358.44;;;15.28;87.06
21879;BME280;27908;42.708;23.278;2023-04-30T10:38:36;64446.06;;;15.57;83.51
21879;BME280;27908;42.708;23.278;2023-04-30T10:41:05;64440.56;;;15.71;75.15
21879;BME280;27908;42.708;23.278;2023-04-30T10:43:30;64546.09;;;16.28;83.59
21879;BME280;27908;42.708;23.278;2023-04-30T10:45:57;64635.63;;;16.71;75.75
21879;BME280;27908;42.708;23.278;2023-04-30T10:48:23;64694.97;;;17.27;64.58
21879;BME280;27908;42.708;23.278;2023-04-30T10:50:57;64685.34;;;17.40;64.91
21879;BME280;27908;42.708;23.278;2023-04-30T10:53:24;64788.72;;;17.65;64.13
21879;BME280;27908;42.708;23.278;2023-04-30T10:55:52;64849.84;;;17.88;65.53
21879;BME280;27908;42.708;23.278;2023-04-30T10:58:31;64911.78;;;18.32;62.75
21879;BME280;27908;42.708;23.278;2023-04-30T11:01:09;64987.09;;;18.67;65.12
21879;BME280;27908;42.708;23.278;2023-04-30T11:03:35;65028.00;;;18.74;57.55
21879;BME280;27908;42.708;23.278;2023-04-30T11:06:12;64994.00;;;18.86;58.02
21879;BME280;27908;42.708;23.278;2023-04-30T11:08:42;64996.09;;;18.88;56.71
21879;BME280;27908;42.708;23.278;2023-04-30T11:11:11;64997.00;;;18.74;57.97
21879;BME280;27908;42.708;23.278;2023-04-30T11:13:58;64972.81;;;18.85;56.44
21879;BME280;27908;42.708;23.278;2023-04-30T11:16:30;65010.59;;;18.89;55.86
21879;BME280;27908;42.708;23.278;2023-04-30T11:19:14;65082.94;;;19.28;57.60
21879;BME280;27908;42.708;23.278;2023-04-30T11:21:40;65086.09;;;19.31;54.63
21879;BME280;27908;42.708;23.278;2023-04-30T11:24:06;65036.41;;;18.87;54.76
21879;BME280;27908;42.708;23.278;2023-04-30T11:27:03;65062.03;;;19.08;54.43
21879;BME280;27908;42.708;23.278;2023-04-30T11:29:30;65083.22;;;19.09;56.23
21879;BME280;27908;42.708;23.278;2023-04-30T11:31:59;65104.72;;;19.34;53.92
21879;BME280;27908;42.708;23.278;2023-04-30T11:34:27;65078.66;;;19.17;54.75
21879;BME280;27908;42.708;23.278;2023-04-30T11:36:57;65113.00;;;19.34;55.15
21879;BME280;27908;42.708;23.278;2023-04-30T11:39:24;65130.75;;;19.49;57.10
21879;BME280;27908;42.708;23.278;2023-04-30T11:41:50;65184.88;;;19.73;58.59
21879;BME280;27908;42.708;23.278;2023-04-30T11:44:25;65301.28;;;20.04;61.80
21879;BME280;27908;42.708;23.278;2023-04-30T11:46:51;65312.81;;;20.54;60.00
21879;BME280;27908;42.708;23.278;2023-04-30T11:49:17;65439.13;;;20.80;61.43
21879;BME280;27908;42.708;23.278;2023-04-30T11:51:47;65520.19;;;21.27;57.89
21879;BME280;27908;42.708;23.278;2023-04-30T11:54:13;65687.47;;;22.06;57.53
21879;BME280;27908;42.708;23.278;2023-04-30T11:56:39;65657.00;;;21.82;57.35
21879;BME280;27908;42.708;23.278;2023-04-30T11:59:09;65539.56;;;21.41;57.45
21879;BME280;27908;42.708;23.278;2023-04-30T12:01:35;65365.97;;;20.77;57.99
21879;BME280;27908;42.708;23.278;2023-04-30T12:04:01;65265.50;;;20.02;59.87
21879;BME280;27908;42.708;23.278;2023-04-30T12:06:30;65237.31;;;19.83;58.10
21879;BME280;27908;42.708;23.278;2023-04-30T12:08:58;65148.44;;;19.56;59.75
21879;BME280;27908;42.708;23.278;2023-04-30T12:11:27;65107.84;;;19.34;61.17
21879;BME280;27908;42.708;23.278;2023-04-30T12:13:59;64986.03;;;18.66;61.48
21879;BME280;27908;42.708;23.278;2023-04-30T12:16:27;64856.16;;;17.99;67.07
21879;BME280;27908;42.708;23.278;2023-04-30T12:19:02;64776.34;;;17.65;69.96
21879;BME280;27908;42.708;23.278;2023-04-30T12:21:28;64753.97;;;17.46;69.91
21879;BME280;27908;42.708;23.278;2023-04-30T12:23:53;64809.59;;;17.43;72.73
21879;BME280;27908;42.708;23.278;2023-04-30T12:26:19;64744.03;;;17.35;73.73
21879;BME280;27908;42.708;23.278;2023-04-30T12:28:48;64700.44;;;17.10;72.45
21879;BME280;27908;42.708;23.278;2023-04-30T12:31:16;64722.81;;;17.27;73.58
21879;BME280;27908;42.708;23.278;2023-04-30T12:33:42;64786.53;;;17.55;73.04
21879;BME280;27908;42.708;23.278;2023-04-30T12:36:10;64827.66;;;17.87;76.50
21879;BME280;27908;42.708;23.278;2023-04-30T12:38:41;64908.56;;;18.22;71.45
21879;BME280;27908;42.708;23.278;2023-04-30T12:41:10;64946.69;;;18.58;67.81
21879;BME280;27908;42.708;23.278;2023-04-30T12:43:39;64958.06;;;18.59;68.67
21879;BME280;27908;42.708;23.278;2023-04-30T12:46:05;64960.25;;;18.68;69.88
21879;BME280;27908;42.708;23.278;2023-04-30T12:48:42;65043.06;;;18.81;68.96
21879;BME280;27908;42.708;23.278;2023-04-30T12:51:09;65007.13;;;19.00;67.74
21879;BME280;27908;42.708;23.278;2023-04-30T12:53:44;65056.31;;;19.08;67.31
21879;BME280;27908;42.708;23.278;2023-04-30T12:56:13;65077.63;;;19.18;63.27
21879;BME280;27908;42.708;23.278;2023-04-30T12:58:40;65076.59;;;19.17;63.44
21879;BME280;27908;42.708;23.278;2023-04-30T13:01:16;65110.38;;;19.29;63.01
21879;BME280;27908;42.708;23.278;2023-04-30T13:03:42;65088.06;;;19.23;67.50
21879;BME280;27908;42.708;23.278;2023-04-30T13:06:07;65108.22;;;19.23;66.47
21879;BME280;27908;42.708;23.278;2023-04-30T13:08:34;65153.53;;;19.48;65.96
21879;BME280;27908;42.708;23.278;2023-04-30T13:11:00;65107.38;;;19.39;67.48
21879;BME280;27908;42.708;23.278;2023-04-30T13:13:25;65211.63;;;19.23;65.21